Time,TemperatureF,DewpointF,PressureIn,WindDirection,WindDirectionDegrees,WindSpeedMPH,WindSpeedGustMPH,Humidity,HourlyPrecipIn,Conditions,Clouds,dailyrainin,SolarRadiationWatts/m^2,SoftwareType,DateUTC
2014-03-07 00:15:00,35.4,33.6,29.92,SSE,151,3.0,6.0,93,0.00,CLR,SKC,0.00,0.0,WeatherDisplay:10.37,2014-03-07 07:15:00,
2014-03-07 00:45:00,35.9,34.1,29.92,SSE,154,1.0,3.0,93,0.00,CLR,SKC,0.00,0.0,WeatherDisplay:10.37,2014-03-07 07:45:00,
2014-03-07 01:15:00,35.9,34.1,29.96,NNW,333,5.0,14.0,93,0.02,RA,SKC,0.02,0.0,WeatherDisplay:10.37,2014-03-07 08:15:00,
2014-03-07 01:45:00,35.5,33.7,29.94,SSE,157,2.0,4.0,93,0.00,CLR,SKC,0.04,0.0,WeatherDisplay:10.37,2014-03-07 08:45:00,
2014-03-07 02:15:00,35.6,33.8,29.95,South,171,0.0,1.0,93,0.00,CLR,SKC,0.05,0.0,WeatherDisplay:10.37,2014-03-07 09:15:00,
2014-03-07 02:45:00,36.0,34.2,29.94,South,186,1.0,4.0,93,0.00,CLR,SKC,0.05,0.0,WeatherDisplay:10.37,2014-03-07 09:45:00,
2014-03-07 03:15:00,36.6,34.5,29.92,SSE,166,0.0,1.0,92,0.00,CLR,SKC,0.05,0.0,WeatherDisplay:10.37,2014-03-07 10:15:00,
2014-03-07 03:45:00,35.0,32.9,29.92,WSW,243,2.0,4.0,92,0.00,CLR,SKC,0.05,0.0,WeatherDisplay:10.37,2014-03-07 10:45:00,
2014-03-07 04:15:00,34.6,32.8,29.93,SSW,212,7.0,12.0,93,0.00,CLR,SKC,0.05,0.0,WeatherDisplay:10.37,2014-03-07 11:15:00,
2014-03-07 04:45:00,34.4,32.6,29.93,South,191,5.0,9.0,93,0.00,CLR,SKC,0.05,0.0,WeatherDisplay:10.37,2014-03-07 11:45:00,
2014-03-07 05:15:00,35.0,33.2,29.94,SSW,204,0.0,6.0,93,0.00,CLR,SKC,0.05,0.0,WeatherDisplay:10.37,2014-03-07 12:15:00,
2014-03-07 05:45:00,35.0,33.2,29.95,WSW,256,2.0,4.0,93,0.00,CLR,SKC,0.05,0.0,WeatherDisplay:10.37,2014-03-07 12:45:00,
2014-03-07 06:15:00,34.1,32.3,29.95,SSW,209,1.0,3.0,93,0.00,CLR,SKC,0.05,0.0,WeatherDisplay:10.37,2014-03-07 13:15:00,
2014-03-07 06:45:00,34.2,32.7,29.97,SSW,195,0.0,4.0,94,0.00,,SKC,0.07,0.0,WeatherDisplay:10.37,2014-03-07 13:45:00,
2014-03-07 07:15:00,33.9,32.3,29.99,South,184,0.0,3.0,94,0.01,RA,SKC,0.12,0.0,WeatherDisplay:10.37,2014-03-07 14:15:00,
2014-03-07 07:45:00,33.9,32.4,30.00,South,172,0.0,2.0,94,0.01,RA,SKC,0.13,14.0,WeatherDisplay:10.37,2014-03-07 14:45:00,
2014-03-07 08:15:00,34.3,32.7,30.02,SSE,166,0.0,2.0,94,0.00,BKN,SKC,0.13,39.0,WeatherDisplay:10.37,2014-03-07 15:15:00,
2014-03-07 08:45:00,35.0,33.4,30.03,SSE,151,0.0,3.0,94,0.00,BKN,SKC,0.13,139.0,WeatherDisplay:10.37,2014-03-07 15:45:00,
2014-03-07 09:15:00,36.1,34.0,30.04,SE,143,1.0,4.0,92,0.00,SCT,SKC,0.13,250.0,WeatherDisplay:10.37,2014-03-07 16:15:00,
2014-03-07 09:45:00,36.9,34.5,30.04,SSW,192,2.0,6.0,91,0.00,BKN,SKC,0.13,171.0,WeatherDisplay:10.37,2014-03-07 16:45:00,
2014-03-07 10:15:00,37.2,34.6,30.05,SSW,194,2.0,8.0,90,0.00,BKN,SKC,0.13,209.0,WeatherDisplay:10.37,2014-03-07 17:15:00,
2014-03-07 10:45:00,38.4,35.2,30.06,SW,217,3.0,7.0,88,0.00,BKN,SKC,0.13,258.0,WeatherDisplay:10.37,2014-03-07 17:45:00,
2014-03-07 11:15:00,38.2,34.7,30.07,WSW,246,2.0,7.0,87,0.00,BKN,SKC,0.13,450.0,WeatherDisplay:10.37,2014-03-07 18:15:00,
2014-03-07 11:45:00,42.6,35.9,30.07,WSW,247,2.0,5.0,77,0.00,CLR,SKC,0.13,858.0,WeatherDisplay:10.37,2014-03-07 18:45:00,
2014-03-07 12:15:00,42.3,36.0,30.06,West,259,3.0,6.0,78,0.00,FEW,SKC,0.13,1104.0,WeatherDisplay:10.37,2014-03-07 19:15:00,
2014-03-07 12:45:00,39.8,32.8,30.07,NNE,21,3.0,7.0,76,0.00,BKN,SKC,0.13,53.0,WeatherDisplay:10.37,2014-03-07 19:45:00,
2014-03-07 13:15:00,38.8,33.1,30.07,NNE,16,0.0,3.0,80,0.01,RA,SKC,0.16,278.0,WeatherDisplay:10.37,2014-03-07 20:15:00,
2014-03-07 13:45:00,40.7,33.1,30.06,South,185,3.0,7.0,74,0.00,FEW,SKC,0.16,396.0,WeatherDisplay:10.37,2014-03-07 20:45:00,
2014-03-07 14:15:00,41.3,33.6,30.07,SSW,205,0.0,3.0,74,0.00,BKN,SKC,0.16,279.0,WeatherDisplay:10.37,2014-03-07 21:15:00,
2014-03-07 14:45:00,43.1,30.5,30.08,WNW,294,3.0,7.0,61,0.00,BKN,SKC,0.16,202.0,WeatherDisplay:10.37,2014-03-07 21:45:00,
2014-03-07 15:15:00,43.4,32.0,30.09,SSW,206,3.0,8.0,64,0.00,FEW,SKC,0.16,522.0,WeatherDisplay:10.37,2014-03-07 22:15:00,
2014-03-07 15:45:00,42.4,30.3,30.08,SSW,192,3.0,9.0,62,0.00,BKN,SKC,0.16,93.0,WeatherDisplay:10.37,2014-03-07 22:45:00,
2014-03-07 16:15:00,42.2,30.1,30.09,SSW,202,3.0,8.0,62,0.00,BKN,SKC,0.16,102.0,WeatherDisplay:10.37,2014-03-07 23:15:00,
2014-03-07 16:45:00,41.0,31.6,30.10,ENE,62,5.0,9.0,69,0.00,BKN,SKC,0.16,39.0,WeatherDisplay:10.37,2014-03-07 23:45:00,
2014-03-07 17:15:00,40.6,30.8,30.12,East,80,6.0,7.0,68,0.00,BKN,SKC,0.16,28.0,WeatherDisplay:10.37,2014-03-08 00:15:00,
2014-03-07 17:45:00,41.4,31.3,30.12,ESE,106,0.0,2.0,67,0.00,SCT,SKC,0.16,44.0,WeatherDisplay:10.37,2014-03-08 00:45:00,
2014-03-07 18:15:00,41.0,27.7,30.13,NNW,333,1.0,5.0,59,0.00,CLR,SKC,0.16,12.0,WeatherDisplay:10.37,2014-03-08 01:15:00,
2014-03-07 18:45:00,39.2,27.3,30.15,NNW,327,1.0,5.0,62,0.00,OVC,SKC,0.16,0.0,WeatherDisplay:10.37,2014-03-08 01:45:00,
2014-03-07 19:15:00,39.1,28.7,30.15,NNE,25,3.0,7.0,66,0.00,CLR,SKC,0.16,0.0,WeatherDisplay:10.37,2014-03-08 02:15:00,
2014-03-07 19:45:00,38.6,29.0,30.17,NE,55,2.0,4.0,68,0.00,CLR,SKC,0.16,0.0,WeatherDisplay:10.37,2014-03-08 02:45:00,
2014-03-07 20:15:00,36.4,28.2,30.18,East,88,2.0,6.0,72,0.00,CLR,SKC,0.16,0.0,WeatherDisplay:10.37,2014-03-08 03:15:00,
2014-03-07 20:45:00,35.6,27.8,30.19,ENE,77,0.0,5.0,73,0.00,CLR,SKC,0.16,0.0,WeatherDisplay:10.37,2014-03-08 03:45:00,
2014-03-07 21:15:00,35.4,26.6,30.21,NE,46,0.0,3.0,70,0.00,CLR,SKC,0.16,0.0,WeatherDisplay:10.37,2014-03-08 04:15:00,
2014-03-07 21:45:00,34.2,27.4,30.22,East,90,2.0,5.0,76,0.00,CLR,SKC,0.16,0.0,WeatherDisplay:10.37,2014-03-08 04:45:00,
2014-03-07 22:15:00,34.1,26.7,30.24,ENE,77,1.0,3.0,74,0.00,CLR,SKC,0.16,0.0,WeatherDisplay:10.37,2014-03-08 05:15:00,
2014-03-07 22:45:00,32.5,26.1,30.25,ENE,69,1.0,3.0,77,0.00,CLR,SKC,0.16,0.0,WeatherDisplay:10.37,2014-03-08 05:45:00,
2014-03-07 23:15:00,30.7,25.8,30.26,East,90,0.0,2.0,82,0.00,CLR,SKC,0.16,0.0,WeatherDisplay:10.37,2014-03-08 06:15:00,
2014-03-07 23:45:00,31.1,26.2,30.27,East,90,0.0,1.0,82,0.00,CLR,SKC,0.16,0.0,WeatherDisplay:10.37,2014-03-08 06:45:00,